Time;durP1;ratioP1;P1;durP2;ratioP2;P2;SDS_P1;SDS_P2;PMS_P1;PMS_P2;Temp;Humidity;BMP_temperature;BMP_pressure;BME280_temperature;BME280_humidity;BME280_pressure;Samples;Min_cycle;Max_cycle;Signal;HPM_P1;HPM_P2
2022/02/09 00:01:59;;;;;;;3.00;2.90;;;9.10;99.90;;;;;;5051010;28;20210;-69
2022/02/09 00:04:33;;;;;;;3.03;2.83;;;9.10;99.90;;;;;;5060516;28;20270;-69
2022/02/09 00:07:07;;;;;;;3.40;3.20;;;9.10;99.90;;;;;;5060394;28;20191;-69
2022/02/09 00:09:40;;;;;;;3.20;3.03;;;9.00;99.90;;;;;;5055075;28;20199;-69
2022/02/09 00:12:17;;;;;;;3.93;3.73;;;9.00;99.90;;;;;;5066788;28;20204;-69
2022/02/09 00:14:57;;;;;;;6.70;4.20;;;9.00;99.90;;;;;;5064229;28;20204;-69
2022/02/09 00:20:37;;;;;;;5.30;4.30;;;9.10;99.90;;;;;;5060109;28;20759;-69
2022/02/09 00:23:45;;;;;;;4.40;4.00;;;9.00;99.90;;;;;;5059247;28;20292;-70
2022/02/09 00:26:39;;;;;;;4.90;4.50;;;9.00;99.90;;;;;;5063233;28;20201;-69
2022/02/09 00:32:32;;;;;;;4.87;4.37;;;8.90;99.90;;;;;;4998540;28;20328;-69
2022/02/09 00:44:01;;;;;;;5.53;5.03;;;8.80;99.90;;;;;;5132898;27;20206;-68
2022/02/09 01:39:10;;;;;;;6.20;5.57;;;8.80;99.90;;;;;;5137737;27;20236;-68
2022/02/09 01:55:53;;;;;;;6.17;4.77;;;8.80;99.90;;;;;;5055935;28;20199;-68
2022/02/09 01:58:23;;;;;;;6.03;4.83;;;8.80;99.90;;;;;;5060508;28;20205;-69
2022/02/09 02:00:52;;;;;;;4.83;4.33;;;8.80;99.90;;;;;;5060890;28;20204;-68
2022/02/09 02:03:22;;;;;;;10.63;4.70;;;8.80;99.90;;;;;;5051626;28;20196;-68
2022/02/09 02:05:51;;;;;;;6.40;4.50;;;8.90;99.90;;;;;;5058330;28;20221;-68
2022/02/09 02:08:19;;;;;;;6.20;4.63;;;8.80;99.90;;;;;;5051833;28;20196;-68
2022/02/09 02:11:00;;;;;;;4.90;4.00;;;8.90;99.90;;;;;;5060178;28;20188;-68
2022/02/09 02:13:49;;;;;;;4.63;4.17;;;8.90;99.90;;;;;;5061047;28;20232;-68
2022/02/09 02:16:24;;;;;;;5.70;4.10;;;8.90;99.90;;;;;;5053924;28;20200;-68
2022/02/09 02:18:58;;;;;;;5.63;4.17;;;8.90;99.90;;;;;;5059244;28;20196;-68
2022/02/09 02:21:47;;;;;;;4.97;4.17;;;8.90;99.90;;;;;;5058529;28;20280;-68
2022/02/09 02:27:29;;;;;;;8.93;4.30;;;8.90;99.90;;;;;;5062909;28;20219;-68
2022/02/09 02:33:19;;;;;;;5.13;3.97;;;8.90;99.90;;;;;;5055265;28;20196;-68
2022/02/09 02:58:14;;;;;;;1.77;1.70;;;8.80;99.90;;;;;;5031830;28;20189;-68
2022/02/09 03:09:15;;;;;;;3.30;3.10;;;8.90;99.90;;;;;;5035604;28;20235;-68
2022/02/09 03:12:09;;;;;;;3.57;3.37;;;8.90;99.90;;;;;;5040141;28;20659;-68
2022/02/09 03:14:45;;;;;;;4.50;4.10;;;8.90;99.90;;;;;;5044145;28;20266;-68
2022/02/09 03:17:18;;;;;;;4.30;4.00;;;8.90;99.90;;;;;;5040590;28;20614;-68
2022/02/09 03:19:55;;;;;;;4.50;4.20;;;8.90;99.90;;;;;;5041289;28;20819;-68
2022/02/09 03:22:29;;;;;;;4.57;4.27;;;8.90;99.90;;;;;;5029564;28;20193;-68
2022/02/09 03:31:12;;;;;;;4.67;4.27;;;8.80;99.90;;;;;;5038710;28;20294;-68
2022/02/09 03:45:16;;;;;;;6.87;5.60;;;8.90;99.90;;;;;;5036049;28;20197;-68
2022/02/09 03:47:51;;;;;;;8.07;6.50;;;8.90;99.90;;;;;;5036574;28;20197;-68
2022/02/09 03:53:26;;;;;;;10.87;6.60;;;8.80;99.90;;;;;;5032559;28;20785;-68
2022/02/09 03:58:43;;;;;;;10.87;6.97;;;8.80;99.90;;;;;;5030311;28;20574;-68
2022/02/09 04:01:17;;;;;;;8.63;6.90;;;8.80;99.90;;;;;;5038615;28;20894;-68
2022/02/09 04:03:45;;;;;;;11.60;7.13;;;8.80;99.90;;;;;;5039177;28;20208;-68
2022/02/09 04:06:15;;;;;;;10.93;7.73;;;8.80;99.90;;;;;;5036378;28;20263;-68
2022/02/09 04:08:50;;;;;;;15.00;7.70;;;8.80;99.90;;;;;;5036588;28;20566;-68
2022/02/09 04:11:24;;;;;;;11.53;8.23;;;8.80;99.90;;;;;;5037295;28;20242;-68
2022/02/09 04:14:02;;;;;;;11.93;7.67;;;8.70;99.90;;;;;;5038761;28;20267;-68
2022/02/09 04:16:49;;;;;;;11.33;8.00;;;8.70;99.90;;;;;;5037122;28;20189;-68
2022/02/09 04:19:28;;;;;;;10.47;8.03;;;8.70;99.90;;;;;;5046880;28;20201;-68
2022/02/09 04:36:15;;;;;;;9.37;7.53;;;8.70;99.90;;;;;;4978244;28;20200;-68
2022/02/09 04:38:50;;;;;;;9.70;7.83;;;8.70;99.90;;;;;;5012076;28;20204;-68
2022/02/09 04:41:43;;;;;;;9.50;7.30;;;8.70;99.90;;;;;;5036810;28;20203;-68
2022/02/09 04:44:34;;;;;;;10.57;7.47;;;8.70;99.90;;;;;;5045565;28;20236;-68
2022/02/09 04:47:21;;;;;;;14.67;8.00;;;8.70;99.90;;;;;;5040992;28;20256;-68
2022/02/09 04:52:54;;;;;;;7.87;6.57;;;8.70;99.90;;;;;;5032911;28;20317;-68
2022/02/09 04:55:49;;;;;;;8.37;6.90;;;8.70;99.90;;;;;;5040056;28;20270;-68
2022/02/09 04:58:27;;;;;;;13.43;7.50;;;8.70;99.90;;;;;;5033249;28;20251;-68
2022/02/09 05:01:02;;;;;;;11.83;7.00;;;8.70;99.90;;;;;;5037709;28;20203;-68
2022/02/09 05:23:20;;;;;;;9.23;7.97;;;8.70;99.90;;;;;;5033723;28;20201;-68
2022/02/09 05:25:51;;;;;;;10.40;7.03;;;8.70;99.90;;;;;;5055224;28;20608;-68
2022/02/09 05:28:19;;;;;;;9.40;7.87;;;8.80;99.90;;;;;;5034357;28;20279;-68
2022/02/09 05:30:51;;;;;;;9.30;7.57;;;8.70;99.90;;;;;;5043007;28;20205;-68
2022/02/09 05:33:21;;;;;;;11.57;8.20;;;8.70;99.90;;;;;;5035361;28;20609;-68
2022/02/09 05:35:49;;;;;;;10.47;7.57;;;8.70;99.90;;;;;;5035804;28;20270;-68
2022/02/09 05:38:20;;;;;;;12.20;8.17;;;8.70;99.90;;;;;;5043293;28;20189;-68
2022/02/09 05:40:48;;;;;;;10.70;7.90;;;8.80;99.90;;;;;;5045899;28;20288;-68
2022/02/09 05:43:17;;;;;;;11.30;8.37;;;8.80;99.90;;;;;;5034759;28;20207;-68
2022/02/09 05:46:10;;;;;;;11.90;8.90;;;8.80;99.90;;;;;;5032814;28;20249;-68
2022/02/09 05:51:29;;;;;;;12.53;8.77;;;8.80;99.90;;;;;;5036240;28;20511;-68
2022/02/09 05:54:08;;;;;;;13.00;8.53;;;8.80;99.90;;;;;;5036030;28;21773;-68
2022/02/09 05:56:41;;;;;;;11.13;8.37;;;8.80;99.90;;;;;;5036334;28;20606;-68
2022/02/09 05:59:27;;;;;;;13.63;8.67;;;8.70;99.90;;;;;;5039180;28;20612;-68
2022/02/09 06:01:56;;;;;;;9.87;8.00;;;8.70;99.90;;;;;;5044550;28;20250;-68
2022/02/09 06:04:25;;;;;;;12.17;9.07;;;8.70;99.90;;;;;;5041450;28;20202;-68
2022/02/09 06:06:53;;;;;;;15.10;9.77;;;8.80;99.90;;;;;;5035891;28;20224;-68
2022/02/09 06:09:23;;;;;;;11.97;8.87;;;8.70;99.90;;;;;;5037542;28;20201;-68
2022/02/09 06:12:04;;;;;;;12.13;8.47;;;8.70;99.90;;;;;;5035521;28;20210;-68
2022/02/09 06:14:54;;;;;;;11.93;8.83;;;8.70;99.90;;;;;;5032910;28;20617;-68
2022/02/09 06:20:09;;;;;;;13.20;9.37;;;8.80;99.90;;;;;;5037828;28;20208;-68
2022/02/09 06:22:37;;;;;;;13.90;9.20;;;8.80;99.90;;;;;;5037104;28;20224;-68
2022/02/09 06:25:07;;;;;;;10.13;7.93;;;8.70;99.90;;;;;;5035585;28;20208;-68
2022/02/09 06:27:36;;;;;;;14.73;9.33;;;8.70;99.90;;;;;;5039610;28;20251;-68
2022/02/09 06:30:05;;;;;;;8.83;7.87;;;8.70;99.90;;;;;;5038653;28;20201;-68
2022/02/09 06:32:34;;;;;;;11.50;8.03;;;8.70;99.90;;;;;;5034096;28;20199;-68
2022/02/09 06:35:02;;;;;;;9.13;7.77;;;8.70;99.90;;;;;;5050945;28;20213;-68
2022/02/09 06:37:39;;;;;;;8.30;7.33;;;8.70;99.90;;;;;;5040861;28;20201;-68
2022/02/09 06:40:11;;;;;;;9.87;7.57;;;8.70;99.90;;;;;;5042456;28;20227;-68
2022/02/09 06:42:39;;;;;;;7.83;7.13;;;8.70;99.90;;;;;;5036974;28;20201;-68
2022/02/09 06:45:13;;;;;;;9.00;7.37;;;8.70;99.90;;;;;;5036655;28;20252;-68
2022/02/09 06:47:45;;;;;;;8.43;7.23;;;8.70;99.90;;;;;;5038531;28;20209;-68
2022/02/09 06:50:21;;;;;;;8.07;6.97;;;8.70;99.90;;;;;;5039213;28;20239;-68
2022/02/09 06:53:00;;;;;;;9.30;7.37;;;8.70;99.90;;;;;;5038312;28;20232;-68
2022/02/09 06:55:30;;;;;;;9.13;6.83;;;8.70;99.90;;;;;;5047033;28;20331;-68
2022/02/09 06:58:02;;;;;;;7.83;6.57;;;8.70;99.90;;;;;;5038777;28;20193;-68
2022/02/09 07:00:40;;;;;;;8.57;7.10;;;8.70;99.90;;;;;;5034098;28;20200;-68
2022/02/09 07:03:09;;;;;;;9.50;7.20;;;8.70;99.90;;;;;;5039186;28;20196;-68
2022/02/09 07:05:37;;;;;;;9.93;7.43;;;8.60;99.90;;;;;;5050882;28;20196;-68
2022/02/09 07:08:06;;;;;;;7.30;6.37;;;8.60;99.90;;;;;;5039104;28;20249;-68
2022/02/09 07:10:36;;;;;;;9.47;7.23;;;8.60;99.90;;;;;;5036237;28;20204;-68
2022/02/09 07:13:06;;;;;;;7.57;6.77;;;8.60;99.90;;;;;;5049645;28;20189;-68
2022/02/09 07:15:40;;;;;;;6.97;6.23;;;8.60;99.90;;;;;;5034623;28;20196;-68
2022/02/09 07:18:11;;;;;;;8.87;6.90;;;8.60;99.90;;;;;;5024143;28;20259;-68
2022/02/09 07:20:53;;;;;;;9.87;7.27;;;8.60;99.90;;;;;;5046220;28;20231;-68
2022/02/09 07:23:26;;;;;;;7.77;6.90;;;8.60;99.90;;;;;;5035742;28;20195;-68
2022/02/09 07:26:09;;;;;;;9.93;7.50;;;8.60;99.90;;;;;;5037454;28;20185;-68
2022/02/09 07:28:38;;;;;;;9.73;7.00;;;8.60;99.90;;;;;;5047632;28;20295;-68
2022/02/09 07:31:08;;;;;;;8.93;7.10;;;8.70;99.90;;;;;;5035878;28;20208;-68
2022/02/09 07:33:40;;;;;;;8.87;6.97;;;8.60;99.90;;;;;;5038252;28;20295;-68
2022/02/09 07:36:09;;;;;;;9.33;6.67;;;8.60;99.90;;;;;;5039085;28;20208;-68
2022/02/09 07:38:39;;;;;;;7.80;6.67;;;8.70;99.90;;;;;;5044644;28;20248;-68
2022/02/09 07:41:10;;;;;;;7.77;6.73;;;8.60;99.90;;;;;;5038378;28;20201;-68
2022/02/09 07:43:45;;;;;;;10.47;7.00;;;8.60;99.90;;;;;;5036965;28;20260;-68
2022/02/09 07:46:38;;;;;;;7.70;6.30;;;8.70;99.90;;;;;;5044191;28;20229;-67
2022/02/09 07:49:10;;;;;;;7.10;6.37;;;8.70;99.90;;;;;;5041525;28;20558;-67
2022/02/09 07:51:54;;;;;;;7.87;6.50;;;8.70;99.90;;;;;;5039166;28;20212;-68
2022/02/09 07:54:25;;;;;;;11.93;6.90;;;8.70;99.90;;;;;;5040827;28;20803;-68
2022/02/09 07:56:55;;;;;;;8.10;6.50;;;8.70;99.90;;;;;;5036872;28;20208;-68
2022/02/09 07:59:24;;;;;;;9.53;6.97;;;8.70;99.90;;;;;;5037565;28;20223;-67
2022/02/09 08:01:53;;;;;;;10.23;6.83;;;8.70;99.90;;;;;;5046768;28;20205;-67
2022/02/09 08:04:21;;;;;;;48.97;28.53;;;8.70;99.90;;;;;;5040942;28;20197;-68
2022/02/09 08:06:51;;;;;;;13.07;8.93;;;8.80;99.90;;;;;;5036227;28;20197;-68
2022/02/09 08:09:27;;;;;;;24.07;12.53;;;8.80;99.90;;;;;;5032116;28;20209;-68
2022/02/09 08:12:23;;;;;;;10.37;8.53;;;8.80;99.90;;;;;;5037987;28;20200;-68
2022/02/09 08:20:30;;;;;;;12.17;8.00;;;8.90;99.90;;;;;;5036894;28;20240;-68
2022/02/09 08:28:51;;;;;;;9.87;8.80;;;8.90;99.90;;;;;;5042024;28;20291;-67
2022/02/09 08:31:58;;;;;;;10.87;7.23;;;9.00;99.90;;;;;;5035342;28;20606;-67
2022/02/09 08:34:26;;;;;;;12.63;6.93;;;9.00;99.90;;;;;;5036565;28;20193;-68
2022/02/09 08:36:56;;;;;;;10.40;7.67;;;8.90;99.90;;;;;;5039850;28;20605;-67
2022/02/09 08:39:25;;;;;;;9.57;7.33;;;8.90;99.90;;;;;;5048718;28;20747;-66
2022/02/09 08:41:56;;;;;;;11.60;7.50;;;8.90;99.90;;;;;;5041104;28;20270;-68
2022/02/09 08:44:27;;;;;;;9.17;7.20;;;8.90;99.90;;;;;;5040932;28;20199;-68
2022/02/09 08:46:56;;;;;;;11.83;7.30;;;9.00;99.90;;;;;;5039535;28;20224;-69
2022/02/09 08:49:26;;;;;;;10.23;7.00;;;9.00;99.90;;;;;;5040680;28;20311;-68
2022/02/09 08:51:56;;;;;;;9.97;6.83;;;9.10;99.90;;;;;;5038376;28;20251;-69
2022/02/09 08:54:24;;;;;;;9.20;6.77;;;9.10;99.90;;;;;;5041676;28;20204;-69
2022/02/09 08:56:54;;;;;;;10.30;6.80;;;9.10;99.90;;;;;;5038551;28;20200;-68
2022/02/09 08:59:27;;;;;;;14.23;7.37;;;9.10;99.90;;;;;;5048928;28;20251;-69
2022/02/09 09:02:01;;;;;;;9.77;7.13;;;9.20;99.90;;;;;;5037862;28;20892;-68
2022/02/09 09:04:33;;;;;;;11.70;6.80;;;9.30;99.90;;;;;;5040465;28;20205;-69
2022/02/09 09:07:09;;;;;;;9.33;7.43;;;9.30;99.90;;;;;;5037005;28;20192;-69
2022/02/09 09:09:53;;;;;;;12.90;7.60;;;9.40;99.90;;;;;;5041977;28;20214;-69
2022/02/09 10:05:51;;;;;;;8.60;6.07;;;10.10;99.90;;;;;;5036608;28;20232;-68
2022/02/09 10:33:52;;;;;;;11.63;6.90;;;10.50;99.90;;;;;;5020919;28;20679;-68
2022/02/09 10:36:24;;;;;;;10.43;6.77;;;10.50;99.90;;;;;;5038583;28;20190;-68
2022/02/09 10:39:06;;;;;;;11.23;7.00;;;10.50;99.90;;;;;;5047180;28;20679;-68
2022/02/09 10:41:42;;;;;;;11.53;6.73;;;10.50;99.90;;;;;;5051222;28;20216;-69
2022/02/09 10:44:13;;;;;;;13.70;6.80;;;10.40;99.90;;;;;;5042029;28;20196;-68
2022/02/09 10:46:48;;;;;;;11.13;6.90;;;10.40;99.90;;;;;;5041044;28;20264;-68
2022/02/09 10:49:19;;;;;;;12.13;7.57;;;10.40;99.90;;;;;;5048722;28;20217;-68
2022/02/09 10:51:51;;;;;;;11.20;7.40;;;10.40;99.90;;;;;;5044539;28;20236;-68
2022/02/09 10:54:27;;;;;;;12.63;7.53;;;10.40;99.90;;;;;;5043844;28;20200;-68
2022/02/09 10:56:58;;;;;;;10.50;6.67;;;10.40;99.90;;;;;;5045654;28;20196;-68
2022/02/09 10:59:28;;;;;;;11.00;6.80;;;10.50;99.90;;;;;;5046745;28;20842;-68
2022/02/09 11:02:00;;;;;;;9.17;6.90;;;10.50;99.90;;;;;;5046081;28;20205;-68
2022/02/09 11:04:29;;;;;;;12.80;6.50;;;10.50;99.90;;;;;;5033909;28;20663;-68
2022/02/09 11:06:58;;;;;;;10.10;7.33;;;10.50;99.90;;;;;;5033586;28;20197;-68
2022/02/09 11:09:30;;;;;;;13.73;7.97;;;10.50;99.90;;;;;;5045968;28;20217;-68
2022/02/09 11:11:59;;;;;;;9.73;6.83;;;10.60;99.90;;;;;;5048187;28;20204;-69
2022/02/09 11:14:28;;;;;;;11.37;6.97;;;10.70;99.90;;;;;;5044056;28;20216;-68
2022/02/09 11:16:59;;;;;;;10.40;6.80;;;10.80;99.90;;;;;;5036891;28;20228;-68
2022/02/09 11:19:35;;;;;;;17.23;11.83;;;10.90;99.90;;;;;;5044806;28;20673;-68
2022/02/09 11:22:09;;;;;;;13.00;8.13;;;11.00;99.90;;;;;;5048978;28;20569;-68
2022/02/09 11:24:44;;;;;;;13.67;9.03;;;11.00;99.90;;;;;;5040756;28;20655;-68
2022/02/09 11:27:25;;;;;;;17.00;10.33;;;11.10;99.90;;;;;;5040577;28;20243;-68
2022/02/09 11:30:10;;;;;;;19.87;9.83;;;11.10;99.90;;;;;;5043339;28;20254;-68
2022/02/09 11:33:00;;;;;;;20.33;10.87;;;11.10;99.90;;;;;;5039792;28;20190;-70
2022/02/09 11:35:37;;;;;;;15.70;10.17;;;11.10;99.90;;;;;;5034482;28;20194;-69
2022/02/09 11:38:18;;;;;;;20.07;11.37;;;11.30;99.90;;;;;;5031503;28;20205;-68
2022/02/09 11:40:53;;;;;;;19.37;11.73;;;11.60;99.90;;;;;;5032567;28;20736;-68
2022/02/09 11:43:58;;;;;;;16.30;11.30;;;11.70;99.90;;;;;;5039675;28;20749;-69
2022/02/09 11:47:15;;;;;;;17.17;10.97;;;11.80;99.90;;;;;;5043784;28;20266;-69
2022/02/09 11:58:46;;;;;;;21.63;13.87;;;11.80;99.90;;;;;;5036238;28;20193;-69
2022/02/09 12:11:04;;;;;;;17.87;13.03;;;11.70;99.90;;;;;;5043034;28;20274;-69
2022/02/09 12:13:52;;;;;;;26.70;17.30;;;11.70;99.90;;;;;;5039121;28;20651;-69
2022/02/09 12:16:37;;;;;;;14.97;11.60;;;11.70;99.90;;;;;;5033672;28;20248;-69
2022/02/09 12:19:09;;;;;;;17.73;11.17;;;11.70;99.90;;;;;;5036675;28;20259;-69
2022/02/09 12:21:48;;;;;;;14.77;9.17;;;11.80;99.90;;;;;;5034330;28;20263;-68
2022/02/09 12:24:32;;;;;;;19.27;12.23;;;11.80;99.90;;;;;;5046875;28;20196;-69
2022/02/09 12:27:03;;;;;;;21.77;14.57;;;11.90;99.90;;;;;;5034801;28;20209;-69
2022/02/09 12:29:34;;;;;;;19.10;13.40;;;12.30;99.90;;;;;;5035194;28;20186;-69
2022/02/09 12:32:24;;;;;;;21.47;16.90;;;12.90;99.90;;;;;;5041297;28;20221;-69
2022/02/09 12:34:59;;;;;;;41.63;27.93;;;13.60;99.90;;;;;;5040039;28;20259;-69
2022/02/09 12:37:29;;;;;;;20.70;13.60;;;13.80;99.90;;;;;;5030971;28;20208;-69
2022/02/09 12:40:00;;;;;;;12.63;10.60;;;13.70;99.90;;;;;;5040451;28;20194;-69
2022/02/09 12:42:31;;;;;;;9.53;8.53;;;13.40;99.90;;;;;;5040353;28;20192;-70
2022/02/09 12:45:02;;;;;;;13.77;10.33;;;13.20;99.90;;;;;;5031897;28;20219;-69
2022/02/09 12:47:42;;;;;;;10.50;7.40;;;13.10;99.90;;;;;;5037933;28;20842;-69
2022/02/09 12:50:13;;;;;;;11.17;7.90;;;13.30;99.90;;;;;;5028018;28;20221;-69
2022/02/09 12:52:44;;;;;;;8.33;6.60;;;13.40;99.90;;;;;;5033240;28;20232;-69
2022/02/09 12:55:15;;;;;;;10.73;9.70;;;13.20;99.90;;;;;;5042266;28;20247;-69
2022/02/09 12:57:47;;;;;;;20.00;17.87;;;13.30;99.90;;;;;;5036945;28;20543;-69
2022/02/09 13:00:25;;;;;;;11.03;9.53;;;13.60;99.90;;;;;;5034581;28;20204;-69
2022/02/09 13:02:58;;;;;;;8.03;5.57;;;13.70;99.90;;;;;;5039334;28;20196;-69
2022/02/09 13:05:28;;;;;;;10.93;8.97;;;13.80;99.90;;;;;;5042379;28;20211;-69
2022/02/09 13:07:57;;;;;;;13.97;11.03;;;14.00;99.90;;;;;;5036609;28;20227;-69
2022/02/09 13:10:27;;;;;;;11.40;7.70;;;13.80;99.90;;;;;;5041456;28;20221;-69
2022/02/09 13:13:04;;;;;;;14.80;12.07;;;13.60;99.90;;;;;;5036679;28;20202;-69
2022/02/09 13:15:39;;;;;;;9.13;7.07;;;13.50;99.90;;;;;;5035307;28;20758;-69
2022/02/09 13:18:30;;;;;;;7.40;6.80;;;13.70;99.90;;;;;;5036683;28;20276;-69
2022/02/09 14:17:20;;;;;;;3.67;3.37;;;12.90;99.90;;;;;;5036253;28;20235;-68
2022/02/09 14:53:23;;;;;;;4.60;3.30;;;12.20;99.90;;;;;;5037252;28;20685;-69
2022/02/09 14:56:00;;;;;;;4.37;3.00;;;12.10;99.90;;;;;;5037919;28;20270;-69
2022/02/09 14:58:32;;;;;;;3.43;3.10;;;12.00;99.90;;;;;;5031302;28;20193;-69
2022/02/09 15:01:06;;;;;;;4.73;3.07;;;12.00;99.90;;;;;;5035824;28;20193;-69
2022/02/09 15:04:00;;;;;;;2.90;2.70;;;11.90;99.90;;;;;;5033152;28;20188;-69
2022/02/09 15:09:16;;;;;;;4.97;4.47;;;11.80;99.90;;;;;;5043218;28;20197;-68
2022/02/09 15:12:03;;;;;;;14.33;12.40;;;11.80;99.90;;;;;;5035068;28;20240;-68
2022/02/09 15:14:46;;;;;;;14.33;12.50;;;11.80;99.90;;;;;;5037127;28;20992;-68
2022/02/09 15:17:39;;;;;;;13.77;12.30;;;11.70;99.90;;;;;;5036426;28;20307;-69
2022/02/09 15:22:52;;;;;;;4.50;4.10;;;11.60;99.90;;;;;;5028697;28;20225;-68
2022/02/09 15:25:22;;;;;;;9.13;8.23;;;11.60;99.90;;;;;;5039130;28;20279;-68
2022/02/09 15:27:57;;;;;;;10.33;7.83;;;11.50;99.90;;;;;;5032910;28;20200;-68
2022/02/09 15:30:32;;;;;;;7.33;4.90;;;11.40;99.90;;;;;;5040073;28;20224;-68
2022/02/09 15:33:03;;;;;;;20.60;17.27;;;11.40;99.90;;;;;;5035862;28;20252;-68
2022/02/09 15:35:34;;;;;;;29.67;20.27;;;11.30;99.90;;;;;;5041878;28;20272;-68
2022/02/09 15:38:08;;;;;;;24.90;19.30;;;11.30;99.90;;;;;;5037071;28;20723;-68
2022/02/09 15:40:46;;;;;;;42.13;32.27;;;11.30;99.90;;;;;;5041645;28;20288;-68
2022/02/09 15:43:28;;;;;;;22.17;19.40;;;11.20;99.90;;;;;;5037300;28;20200;-68
2022/02/09 15:57:19;;;;;;;22.00;15.97;;;11.10;99.90;;;;;;5037497;28;20265;-68
2022/02/09 16:05:37;;;;;;;27.50;20.13;;;11.20;99.90;;;;;;5035875;28;20276;-68
2022/02/09 16:05:42;;;;;;;40.87;27.10;;;11.10;99.90;;;;;;5032576;28;20208;-68
2022/02/09 16:08:45;;;;;;;87.70;52.13;;;11.10;99.90;;;;;;5036535;28;20649;-68
2022/02/09 16:11:35;;;;;;;26.07;19.87;;;11.10;99.90;;;;;;5040257;28;20193;-68
2022/02/09 16:20:10;;;;;;;36.33;22.87;;;10.90;99.90;;;;;;5040450;28;20251;-68
2022/02/09 16:22:40;;;;;;;59.63;38.37;;;10.80;99.90;;;;;;5040682;28;20258;-67
2022/02/09 16:25:20;;;;;;;40.17;28.00;;;10.80;99.90;;;;;;5039501;28;20201;-68
2022/02/09 16:33:33;;;;;;;9.93;7.90;;;10.80;99.90;;;;;;5032715;28;20271;-68
2022/02/09 16:44:15;;;;;;;7.63;5.97;;;10.70;99.90;;;;;;4986473;28;20262;-68
2022/02/09 16:44:37;;;;;;;7.57;5.63;;;10.60;99.90;;;;;;5020557;28;20288;-67
2022/02/09 16:47:15;;;;;;;6.77;5.80;;;10.60;99.90;;;;;;5035219;28;20280;-68
2022/02/09 16:49:54;;;;;;;8.20;5.73;;;10.60;99.90;;;;;;5037068;28;20192;-68
2022/02/09 16:52:29;;;;;;;21.03;12.53;;;10.50;99.90;;;;;;5026742;28;20220;-68
2022/02/09 16:55:00;;;;;;;17.27;10.17;;;10.50;99.90;;;;;;5031671;28;20199;-68
2022/02/09 17:11:15;;;;;;;7.93;6.10;;;10.30;99.90;;;;;;5020384;28;20213;-68
2022/02/09 17:19:49;;;;;;;5.47;4.90;;;10.20;99.90;;;;;;5035282;28;20201;-68
2022/02/09 17:22:17;;;;;;;7.67;4.70;;;10.20;99.90;;;;;;5037023;28;20232;-68
2022/02/09 17:24:47;;;;;;;6.17;5.33;;;10.20;99.90;;;;;;5032574;28;20410;-68
2022/02/09 17:27:19;;;;;;;6.13;5.53;;;10.20;99.90;;;;;;5035154;28;20307;-68
2022/02/09 17:30:14;;;;;;;6.37;5.67;;;10.20;99.90;;;;;;5029992;28;20188;-68
2022/02/09 17:32:50;;;;;;;8.40;5.80;;;10.10;99.90;;;;;;5033680;28;20278;-68
2022/02/09 17:35:22;;;;;;;8.90;7.10;;;10.10;99.90;;;;;;5037863;28;20197;-68
2022/02/09 17:38:17;;;;;;;10.90;7.10;;;10.00;99.90;;;;;;5030667;28;20231;-68
2022/02/09 17:57:45;;;;;;;8.87;7.33;;;9.90;99.90;;;;;;5040141;28;20630;-68
2022/02/09 18:00:16;;;;;;;9.10;7.90;;;9.90;99.90;;;;;;5034308;28;20192;-68
2022/02/09 18:03:11;;;;;;;13.37;8.97;;;9.90;99.90;;;;;;5032892;28;20223;-68
2022/02/09 18:05:45;;;;;;;12.57;8.00;;;9.90;99.90;;;;;;5035421;28;20192;-69
2022/02/09 18:08:20;;;;;;;11.03;8.37;;;9.90;99.90;;;;;;5015115;28;20208;-69
2022/02/09 18:11:02;;;;;;;14.87;9.00;;;9.90;99.90;;;;;;5034249;28;20567;-68
2022/02/09 18:30:08;;;;;;;26.67;16.60;;;9.80;99.90;;;;;;5003612;28;20629;-68
2022/02/09 18:33:05;;;;;;;17.20;11.90;;;9.80;99.90;;;;;;5033734;28;20256;-69
2022/02/09 18:38:53;;;;;;;18.90;11.53;;;9.70;99.90;;;;;;5037761;28;20220;-69
2022/02/09 18:44:15;;;;;;;17.47;11.43;;;9.70;99.90;;;;;;4990758;28;20209;-69
2022/02/09 19:03:42;;;;;;;33.77;16.57;;;9.70;99.90;;;;;;5022993;28;20209;-68
2022/02/09 19:06:18;;;;;;;18.17;11.00;;;9.70;99.90;;;;;;5038939;28;20200;-68
2022/02/09 19:14:33;;;;;;;22.37;14.37;;;9.80;99.90;;;;;;5030726;28;21281;-69
2022/02/09 19:17:06;;;;;;;18.57;12.43;;;9.80;99.90;;;;;;5039546;28;20212;-69
2022/02/09 19:19:54;;;;;;;17.13;12.23;;;9.70;99.90;;;;;;5034085;28;20336;-69
2022/02/09 19:30:46;;;;;;;32.37;21.60;;;9.70;99.90;;;;;;5049747;28;20697;-69
2022/02/09 19:47:19;;;;;;;49.97;25.43;;;9.60;99.90;;;;;;5046639;28;20212;-69
2022/02/09 19:50:05;;;;;;;40.80;20.33;;;9.60;99.90;;;;;;5037694;28;20216;-68
2022/02/09 19:52:51;;;;;;;36.50;20.90;;;9.50;99.90;;;;;;5037305;28;20313;-69
2022/02/09 19:55:33;;;;;;;21.67;14.50;;;9.50;99.90;;;;;;5038952;28;20196;-69
2022/02/09 19:58:02;;;;;;;25.00;14.43;;;9.50;99.90;;;;;;5041227;28;20279;-68
2022/02/09 20:00:35;;;;;;;26.00;15.07;;;9.50;99.90;;;;;;5038541;28;20367;-69
2022/02/09 20:03:07;;;;;;;24.87;15.57;;;9.50;99.90;;;;;;5033826;28;20211;-69
2022/02/09 20:05:35;;;;;;;23.77;15.63;;;9.40;99.90;;;;;;5035345;28;20204;-68
2022/02/09 20:08:07;;;;;;;31.50;22.50;;;9.50;99.90;;;;;;5037757;28;20204;-68
2022/02/09 20:10:35;;;;;;;29.10;18.17;;;9.50;99.90;;;;;;5040885;28;20884;-69
2022/02/09 20:13:03;;;;;;;28.70;14.77;;;9.60;99.90;;;;;;5043054;28;20312;-69
2022/02/09 20:15:32;;;;;;;22.93;14.60;;;9.60;99.90;;;;;;5026147;28;20634;-68
2022/02/09 20:18:00;;;;;;;24.00;14.20;;;9.60;99.90;;;;;;5034291;28;20200;-68
2022/02/09 20:20:30;;;;;;;22.13;13.93;;;9.60;99.90;;;;;;5041201;28;20342;-69
2022/02/09 20:22:59;;;;;;;21.17;13.93;;;9.60;99.90;;;;;;5034906;28;20295;-68
2022/02/09 20:25:29;;;;;;;24.00;14.57;;;9.60;99.90;;;;;;5034168;28;20193;-68
2022/02/09 20:27:57;;;;;;;25.63;15.30;;;9.60;99.90;;;;;;5040482;28;20203;-69
2022/02/09 20:30:33;;;;;;;42.20;24.77;;;9.60;99.90;;;;;;5038811;28;20765;-69
2022/02/09 20:33:06;;;;;;;33.70;18.87;;;9.60;99.90;;;;;;5036245;28;20227;-68
2022/02/09 20:35:34;;;;;;;35.77;19.03;;;9.60;99.90;;;;;;5032522;28;20559;-68
2022/02/09 20:38:03;;;;;;;33.70;18.63;;;9.50;99.90;;;;;;5037003;28;20807;-69
2022/02/09 20:40:38;;;;;;;36.50;19.80;;;9.50;99.90;;;;;;5039723;28;20675;-69
2022/02/09 20:43:08;;;;;;;60.00;34.97;;;9.40;99.90;;;;;;5034689;28;20242;-69
2022/02/09 20:45:39;;;;;;;121.40;76.07;;;9.40;99.90;;;;;;5039257;28;20308;-69
2022/02/09 20:48:13;;;;;;;36.10;23.60;;;9.50;99.90;;;;;;5032437;28;20720;-69
2022/02/09 20:50:43;;;;;;;30.67;17.50;;;9.40;99.90;;;;;;5041177;28;20259;-69
2022/02/09 20:53:14;;;;;;;31.37;19.07;;;9.50;99.90;;;;;;5037852;28;20250;-68
2022/02/09 20:55:44;;;;;;;34.90;21.63;;;9.40;99.90;;;;;;5040384;28;20721;-69
2022/02/09 20:58:14;;;;;;;30.07;18.77;;;9.50;99.90;;;;;;5033553;28;20205;-69
2022/02/09 21:00:47;;;;;;;68.83;44.17;;;9.40;99.90;;;;;;5039844;28;20716;-68
2022/02/09 21:03:28;;;;;;;48.63;33.00;;;9.40;99.90;;;;;;5040954;28;20189;-69
2022/02/09 21:06:09;;;;;;;28.63;19.23;;;9.30;99.90;;;;;;5031278;28;20675;-68
2022/02/09 21:08:52;;;;;;;24.20;16.53;;;9.30;99.90;;;;;;5047198;28;20280;-68
2022/02/09 21:11:27;;;;;;;28.83;17.37;;;9.40;99.90;;;;;;5035222;28;20271;-68
2022/02/09 21:14:04;;;;;;;24.63;15.00;;;9.30;99.90;;;;;;5036241;28;20628;-68
2022/02/09 21:16:50;;;;;;;29.13;16.00;;;9.30;99.90;;;;;;5044086;28;20831;-68
2022/02/09 21:22:36;;;;;;;27.37;17.23;;;9.20;99.90;;;;;;5038707;28;20204;-68
2022/02/09 21:45:12;;;;;;;28.53;16.70;;;9.10;99.90;;;;;;5039146;28;20197;-69
2022/02/09 21:56:17;;;;;;;32.30;17.80;;;9.10;99.90;;;;;;5049128;28;20281;-68
2022/02/09 21:58:56;;;;;;;36.47;18.53;;;9.10;99.90;;;;;;5035070;28;20631;-68
2022/02/09 22:01:40;;;;;;;35.13;17.80;;;9.10;99.90;;;;;;5022927;28;20288;-68
2022/02/09 22:20:56;;;;;;;36.87;17.77;;;9.00;99.90;;;;;;5038545;28;20229;-69
2022/02/09 22:24:04;;;;;;;30.70;18.37;;;9.00;99.90;;;;;;5036323;28;20207;-68
2022/02/09 22:29:31;;;;;;;36.97;19.73;;;8.90;99.90;;;;;;5039737;28;20278;-69
2022/02/09 22:32:10;;;;;;;35.23;18.80;;;8.90;99.90;;;;;;5041731;28;20271;-68
2022/02/09 22:45:23;;;;;;;33.07;18.33;;;8.90;99.90;;;;;;5039600;28;20278;-68
2022/02/09 22:46:06;;;;;;;34.20;19.33;;;8.90;99.90;;;;;;5035687;28;20290;-68
2022/02/09 22:48:37;;;;;;;35.57;18.83;;;8.80;99.90;;;;;;5039807;28;20197;-69
2022/02/09 22:56:40;;;;;;;40.83;20.83;;;8.80;99.90;;;;;;5041935;28;20189;-68
2022/02/09 22:59:16;;;;;;;43.47;20.43;;;8.80;99.90;;;;;;5037740;28;20276;-68
2022/02/09 23:01:49;;;;;;;37.53;19.67;;;8.80;99.90;;;;;;5036043;28;20718;-68
2022/02/09 23:04:34;;;;;;;36.07;19.17;;;8.70;99.90;;;;;;5038176;28;20263;-68
2022/02/09 23:07:13;;;;;;;37.77;20.87;;;8.70;99.90;;;;;;5038447;28;20212;-69
2022/02/09 23:09:51;;;;;;;35.57;19.60;;;8.70;99.90;;;;;;5039753;28;20311;-69
2022/02/09 23:12:29;;;;;;;34.37;19.73;;;8.60;99.90;;;;;;5044199;28;20200;-69
2022/02/09 23:15:21;;;;;;;37.43;19.83;;;8.60;99.90;;;;;;5042926;28;20630;-68
2022/02/09 23:18:14;;;;;;;39.63;19.23;;;8.50;99.90;;;;;;5041657;28;20272;-68